Time;durP1;ratioP1;P1;durP2;ratioP2;P2;SDS_P1;SDS_P2;PMS_P1;PMS_P2;Temp;Humidity;BMP_temperature;BMP_pressure;BME280_temperature;BME280_humidity;BME280_pressure;Samples;Min_cycle;Max_cycle;Signal;HPM_P1;HPM_P2
2023/07/25 00:00:24;;;;;;;2.10;1.90;;;20.80;71.00;;;;;;5117825;28;20654;-85
2023/07/25 00:02:50;;;;;;;2.13;1.90;;;20.80;71.00;;;;;;5116198;28;20160;-84
2023/07/25 00:05:16;;;;;;;2.30;1.90;;;20.80;70.90;;;;;;5099907;28;20603;-85
2023/07/25 00:07:42;;;;;;;1.80;1.70;;;20.80;71.00;;;;;;5116035;28;20217;-83
2023/07/25 00:10:08;;;;;;;2.40;2.00;;;20.80;70.90;;;;;;5117275;28;20268;-84
2023/07/25 00:12:35;;;;;;;2.10;1.90;;;20.80;70.90;;;;;;5117687;28;20148;-84
2023/07/25 00:15:02;;;;;;;2.00;1.80;;;20.70;70.80;;;;;;5099127;28;20553;-82
2023/07/25 00:17:27;;;;;;;1.88;1.75;;;20.80;70.90;;;;;;5098884;28;20225;-84
2023/07/25 00:19:54;;;;;;;2.00;1.80;;;20.80;70.90;;;;;;5099260;28;20200;-84
2023/07/25 00:22:20;;;;;;;2.13;1.90;;;20.80;71.00;;;;;;5117106;28;20183;-84
2023/07/25 00:24:45;;;;;;;1.85;1.70;;;20.80;71.00;;;;;;5099134;28;20198;-84
2023/07/25 00:27:11;;;;;;;2.17;1.92;;;20.80;70.90;;;;;;5098785;28;20188;-82
2023/07/25 00:29:37;;;;;;;2.63;2.00;;;20.80;70.90;;;;;;5116946;28;20164;-83
2023/07/25 00:32:04;;;;;;;2.30;2.05;;;20.80;71.00;;;;;;5098681;28;20537;-83
2023/07/25 00:34:29;;;;;;;2.10;1.90;;;20.80;71.00;;;;;;5099325;28;20162;-86
2023/07/25 00:36:55;;;;;;;2.50;2.30;;;20.90;71.00;;;;;;5098562;28;20243;-85
2023/07/25 00:39:22;;;;;;;2.20;2.00;;;20.80;71.00;;;;;;5098755;28;20207;-81
2023/07/25 00:41:48;;;;;;;2.40;2.20;;;20.90;71.00;;;;;;5098384;28;20160;-83
2023/07/25 00:44:14;;;;;;;2.40;2.20;;;20.80;70.90;;;;;;5115780;28;20160;-84
2023/07/25 00:46:41;;;;;;;2.38;2.17;;;20.80;71.00;;;;;;5098314;28;20683;-82
2023/07/25 00:49:07;;;;;;;2.28;2.00;;;20.80;71.00;;;;;;5098286;28;20172;-84
2023/07/25 00:51:33;;;;;;;2.20;2.00;;;20.80;71.00;;;;;;5098662;28;20658;-82
2023/07/25 00:53:59;;;;;;;2.53;2.10;;;20.80;71.10;;;;;;5098228;28;20172;-82
2023/07/25 00:56:25;;;;;;;2.28;2.08;;;20.70;71.00;;;;;;5116677;28;20188;-82
2023/07/25 00:58:51;;;;;;;2.83;2.45;;;20.80;71.00;;;;;;5098862;28;20196;-84
2023/07/25 01:01:17;;;;;;;2.20;1.85;;;20.80;71.00;;;;;;5115064;28;20160;-85
2023/07/25 01:03:43;;;;;;;2.63;2.28;;;20.80;71.00;;;;;;5116600;28;20158;-85
2023/07/25 01:06:11;;;;;;;2.65;2.00;;;20.80;71.00;;;;;;5115136;28;20679;-85
2023/07/25 01:08:52;;;;;;;2.50;1.95;;;20.80;71.00;;;;;;5098498;28;20171;-85
2023/07/25 01:11:18;;;;;;;2.40;2.10;;;20.80;71.20;;;;;;5098215;28;20187;-85
2023/07/25 01:13:44;;;;;;;2.33;2.05;;;20.80;71.20;;;;;;5097788;28;20156;-86
2023/07/25 01:16:12;;;;;;;2.60;2.00;;;20.80;71.20;;;;;;5098260;28;20492;-83
2023/07/25 01:18:38;;;;;;;2.33;2.13;;;20.80;71.20;;;;;;5097707;28;20648;-83
2023/07/25 01:21:04;;;;;;;2.30;2.10;;;20.80;71.20;;;;;;5114797;28;20171;-83
2023/07/25 01:23:30;;;;;;;2.63;2.20;;;20.80;71.20;;;;;;5115985;28;20149;-83
2023/07/25 01:25:56;;;;;;;2.40;2.20;;;20.80;71.20;;;;;;5097629;28;20339;-83
2023/07/25 01:28:23;;;;;;;2.38;2.03;;;20.80;71.30;;;;;;5114640;28;20627;-84
2023/07/25 01:30:49;;;;;;;2.40;2.20;;;20.80;71.20;;;;;;5097541;28;20229;-84
2023/07/25 01:33:14;;;;;;;2.47;1.92;;;20.80;71.10;;;;;;5097393;28;20603;-83
2023/07/25 01:35:40;;;;;;;2.53;2.20;;;20.70;71.20;;;;;;5115767;28;20167;-85
2023/07/25 01:38:06;;;;;;;2.30;2.08;;;20.70;71.20;;;;;;5097507;28;20160;-84
2023/07/25 01:40:32;;;;;;;2.28;2.00;;;20.80;71.20;;;;;;5115541;28;20650;-85
2023/07/25 01:42:58;;;;;;;2.83;2.30;;;20.80;71.20;;;;;;5115636;28;20144;-84
2023/07/25 01:45:24;;;;;;;2.38;2.17;;;20.80;71.20;;;;;;5115810;28;20216;-83
2023/07/25 01:47:50;;;;;;;2.45;2.25;;;20.80;71.10;;;;;;5114246;28;20156;-83
2023/07/25 01:50:17;;;;;;;2.33;2.13;;;20.80;71.20;;;;;;5115494;28;20160;-82
2023/07/25 01:52:42;;;;;;;2.95;2.33;;;20.80;71.20;;;;;;5113841;28;20230;-84
2023/07/25 01:55:09;;;;;;;2.38;2.10;;;20.80;71.20;;;;;;5097096;28;20168;-83
2023/07/25 01:57:35;;;;;;;2.50;2.00;;;20.70;71.20;;;;;;5114209;28;20515;-84
2023/07/25 02:00:01;;;;;;;2.30;2.10;;;20.80;71.20;;;;;;5113956;28;20187;-84
2023/07/25 02:02:27;;;;;;;2.30;2.10;;;20.80;71.20;;;;;;5115134;28;20156;-83
2023/07/25 02:04:53;;;;;;;2.20;2.00;;;20.80;71.20;;;;;;5115067;28;20575;-86
2023/07/25 02:07:18;;;;;;;2.28;1.95;;;20.80;71.20;;;;;;5113538;28;20164;-85
2023/07/25 02:09:44;;;;;;;3.08;2.20;;;20.70;71.10;;;;;;5096639;28;20162;-86
2023/07/25 02:12:11;;;;;;;2.60;2.33;;;20.80;71.20;;;;;;5114127;28;20246;-83
2023/07/25 02:14:37;;;;;;;2.58;2.10;;;20.70;71.20;;;;;;5096658;28;20653;-85
2023/07/25 02:17:03;;;;;;;2.53;2.30;;;20.80;71.30;;;;;;5113687;28;20176;-84
2023/07/25 02:19:29;;;;;;;2.83;2.50;;;20.70;71.10;;;;;;5114707;28;20188;-86
2023/07/25 02:21:55;;;;;;;2.33;2.10;;;20.80;71.30;;;;;;5115049;28;20156;-83
2023/07/25 02:24:21;;;;;;;2.20;2.00;;;20.80;71.20;;;;;;5113353;28;20175;-82
2023/07/25 02:26:46;;;;;;;2.47;2.28;;;20.70;71.20;;;;;;5114689;28;20180;-83
2023/07/25 02:29:12;;;;;;;2.95;2.55;;;20.80;71.30;;;;;;5113394;28;20167;-82
2023/07/25 02:31:38;;;;;;;2.50;2.30;;;20.70;71.20;;;;;;5096322;28;20166;-85
2023/07/25 02:34:04;;;;;;;2.40;2.20;;;20.70;71.30;;;;;;5096753;28;20164;-84
2023/07/25 02:36:30;;;;;;;2.40;2.20;;;20.80;71.40;;;;;;5096277;28;20163;-82
2023/07/25 02:38:56;;;;;;;2.38;2.17;;;20.80;71.40;;;;;;5114481;28;20219;-83
2023/07/25 02:41:22;;;;;;;2.42;2.22;;;20.70;71.40;;;;;;5113447;28;20156;-82
2023/07/25 02:43:48;;;;;;;2.47;2.13;;;20.80;71.40;;;;;;5096170;28;20614;-84
2023/07/25 02:46:14;;;;;;;2.90;2.60;;;20.80;71.40;;;;;;5096277;28;20168;-84
2023/07/25 02:48:40;;;;;;;2.42;2.22;;;20.70;71.40;;;;;;5096047;28;20175;-85
2023/07/25 02:51:06;;;;;;;2.53;2.33;;;20.70;71.30;;;;;;5096061;28;20206;-83
2023/07/25 02:53:31;;;;;;;3.00;2.70;;;20.80;71.30;;;;;;5113097;28;20221;-85
2023/07/25 02:55:57;;;;;;;2.55;2.30;;;20.70;71.40;;;;;;5112972;28;20145;-87
2023/07/25 02:58:23;;;;;;;2.50;2.28;;;20.80;71.40;;;;;;5095796;28;20164;-83
2023/07/25 03:00:50;;;;;;;2.92;2.15;;;20.70;71.20;;;;;;5095968;28;20199;-85
2023/07/25 03:03:16;;;;;;;3.08;2.53;;;20.80;71.40;;;;;;5095818;28;20160;-84
2023/07/25 03:05:41;;;;;;;2.60;2.30;;;20.80;71.40;;;;;;5114119;28;20177;-83
2023/07/25 03:08:07;;;;;;;2.60;2.40;;;20.80;71.40;;;;;;5112831;28;20152;-83
2023/07/25 03:10:33;;;;;;;2.45;2.15;;;20.80;71.60;;;;;;5112643;28;20228;-85
2023/07/25 03:12:59;;;;;;;2.70;2.50;;;20.80;71.30;;;;;;5112801;28;20167;-84
2023/07/25 03:15:25;;;;;;;2.70;2.50;;;20.80;71.40;;;;;;5095666;28;20622;-84
2023/07/25 03:17:51;;;;;;;2.83;2.53;;;20.80;71.40;;;;;;5096116;28;20607;-82
2023/07/25 03:20:17;;;;;;;2.45;2.22;;;20.70;71.40;;;;;;5111800;28;20650;-84
2023/07/25 03:22:43;;;;;;;2.85;2.35;;;20.70;71.30;;;;;;5095935;28;20243;-83
2023/07/25 03:25:09;;;;;;;3.40;2.30;;;20.70;71.30;;;;;;5112609;28;20673;-82
2023/07/25 03:27:35;;;;;;;2.70;2.30;;;20.70;71.40;;;;;;5112591;28;20155;-84
2023/07/25 03:30:01;;;;;;;2.42;2.20;;;20.70;71.40;;;;;;5095409;28;20168;-85
2023/07/25 03:32:27;;;;;;;2.38;2.00;;;20.70;71.40;;;;;;5095462;28;20625;-82
2023/07/25 03:34:53;;;;;;;2.58;2.30;;;20.70;71.40;;;;;;5113695;28;20152;-82
2023/07/25 03:37:18;;;;;;;3.00;2.50;;;20.70;71.50;;;;;;5113738;28;20310;-84
2023/07/25 03:39:44;;;;;;;2.83;2.50;;;20.70;71.50;;;;;;5113612;28;20275;-84
2023/07/25 03:42:10;;;;;;;2.75;2.42;;;20.70;71.50;;;;;;5112405;28;20168;-85
2023/07/25 03:44:36;;;;;;;2.95;2.63;;;20.70;71.50;;;;;;5112368;28;20159;-85
2023/07/25 03:47:02;;;;;;;2.72;2.42;;;20.70;71.50;;;;;;5113595;28;20148;-82
2023/07/25 03:49:28;;;;;;;2.95;2.47;;;20.70;71.60;;;;;;5095280;28;20631;-84
2023/07/25 03:51:54;;;;;;;3.08;2.45;;;20.70;71.60;;;;;;5112302;28;20219;-84
2023/07/25 03:54:23;;;;;;;3.65;3.05;;;20.70;71.60;;;;;;5095445;28;20630;-85
2023/07/25 03:56:50;;;;;;;3.42;2.72;;;20.70;71.60;;;;;;5112308;28;20156;-82
2023/07/25 03:59:17;;;;;;;3.20;2.70;;;20.70;71.60;;;;;;5095425;28;20200;-82
2023/07/25 04:01:43;;;;;;;3.15;2.80;;;20.70;71.70;;;;;;5112492;28;20157;-85
2023/07/25 04:04:09;;;;;;;2.80;2.50;;;20.70;71.60;;;;;;5095175;28;20166;-85
2023/07/25 04:06:36;;;;;;;3.90;2.83;;;20.70;71.60;;;;;;5112417;28;20253;-86
2023/07/25 04:09:02;;;;;;;3.05;2.22;;;20.70;71.60;;;;;;5095123;28;20258;-85
2023/07/25 04:11:28;;;;;;;3.63;2.55;;;20.80;71.80;;;;;;5095164;28;20591;-84
2023/07/25 04:13:54;;;;;;;3.08;2.45;;;20.70;71.70;;;;;;5112047;28;20523;-85
2023/07/25 04:16:20;;;;;;;3.35;2.70;;;20.70;71.70;;;;;;5112026;28;20184;-82
2023/07/25 04:18:46;;;;;;;3.30;2.53;;;20.70;71.70;;;;;;5112211;28;20192;-82
2023/07/25 04:21:12;;;;;;;2.88;2.50;;;20.70;71.70;;;;;;5094977;28;20623;-83
2023/07/25 04:23:38;;;;;;;2.90;2.60;;;20.70;71.80;;;;;;5095154;28;20259;-83
2023/07/25 04:26:04;;;;;;;2.92;2.53;;;20.70;71.70;;;;;;5112005;28;20156;-81
2023/07/25 04:28:30;;;;;;;3.72;2.97;;;20.70;71.70;;;;;;5094885;28;20164;-83
2023/07/25 04:30:56;;;;;;;3.28;2.55;;;20.70;71.60;;;;;;5096356;28;20209;-85
2023/07/25 04:33:21;;;;;;;2.95;2.60;;;20.70;71.60;;;;;;5115707;28;20642;-84
2023/07/25 04:35:51;;;;;;;3.58;2.60;;;20.70;71.60;;;;;;5115769;28;20629;-82
2023/07/25 04:38:17;;;;;;;3.35;2.40;;;20.70;71.60;;;;;;5064526;28;20180;-85
2023/07/25 04:40:43;;;;;;;3.63;2.60;;;20.70;71.60;;;;;;5116816;28;20164;-85
2023/07/25 04:43:09;;;;;;;3.08;2.55;;;20.80;71.80;;;;;;5099043;28;20165;-82
2023/07/25 04:45:36;;;;;;;3.10;2.60;;;20.70;71.70;;;;;;5081936;28;20175;-82
2023/07/25 04:48:02;;;;;;;3.03;2.72;;;20.70;71.60;;;;;;5115353;28;20148;-85
2023/07/25 04:50:28;;;;;;;3.03;2.70;;;20.70;71.60;;;;;;5115876;28;20167;-86
2023/07/25 04:52:54;;;;;;;3.55;2.78;;;20.70;71.70;;;;;;5131517;27;20590;-82
2023/07/25 04:55:20;;;;;;;3.17;2.70;;;20.70;71.60;;;;;;5101689;27;20162;-83
2023/07/25 04:57:46;;;;;;;3.15;2.60;;;20.70;72.50;;;;;;5102220;27;20250;-84
2023/07/25 05:00:12;;;;;;;3.15;2.85;;;20.70;71.80;;;;;;5136973;27;20649;-84
2023/07/25 05:02:38;;;;;;;3.80;2.80;;;20.70;71.70;;;;;;5118488;27;20209;-83
2023/07/25 05:05:04;;;;;;;3.60;2.80;;;20.70;71.60;;;;;;5118958;27;20560;-85
2023/07/25 05:07:30;;;;;;;3.08;2.60;;;20.70;71.80;;;;;;5101445;27;20209;-84
2023/07/25 05:09:56;;;;;;;3.58;2.92;;;20.70;71.80;;;;;;5137105;27;20155;-82
2023/07/25 05:12:22;;;;;;;3.47;2.90;;;20.70;71.80;;;;;;5118414;27;20521;-84
2023/07/25 05:14:48;;;;;;;4.05;2.90;;;20.70;71.70;;;;;;5118699;27;20220;-86
2023/07/25 05:17:14;;;;;;;3.35;3.05;;;20.70;71.80;;;;;;5118487;27;20614;-85
2023/07/25 05:19:41;;;;;;;3.17;2.80;;;20.70;71.80;;;;;;5101038;27;20243;-86
2023/07/25 05:22:07;;;;;;;3.10;2.80;;;20.80;71.70;;;;;;5101737;27;20162;-86
2023/07/25 05:24:33;;;;;;;3.55;3.10;;;20.70;71.50;;;;;;5118230;27;20573;-86
2023/07/25 05:26:59;;;;;;;3.72;3.10;;;20.80;71.70;;;;;;5100991;27;20175;-83
2023/07/25 05:29:25;;;;;;;4.47;3.25;;;20.70;71.80;;;;;;5118264;27;20223;-86
2023/07/25 05:31:51;;;;;;;3.10;2.78;;;20.70;71.80;;;;;;5118297;27;20148;-85
2023/07/25 05:34:17;;;;;;;3.15;2.80;;;20.70;71.80;;;;;;5117913;27;20151;-83
2023/07/25 05:36:43;;;;;;;3.05;2.70;;;20.80;71.90;;;;;;5117912;27;20162;-86
2023/07/25 05:39:09;;;;;;;3.63;2.97;;;20.70;71.60;;;;;;5117829;27;20584;-86
2023/07/25 05:41:35;;;;;;;3.25;2.95;;;20.70;71.80;;;;;;5100676;27;20167;-82
2023/07/25 05:44:00;;;;;;;3.95;3.10;;;20.70;72.00;;;;;;5117165;27;20148;-86
2023/07/25 05:46:26;;;;;;;3.75;2.97;;;20.70;72.40;;;;;;5117689;27;20155;-85
2023/07/25 05:48:52;;;;;;;3.60;3.20;;;20.80;73.10;;;;;;5100603;27;20164;-84
2023/07/25 05:51:18;;;;;;;3.63;3.10;;;20.80;74.00;;;;;;5117614;27;20184;-84
2023/07/25 05:53:44;;;;;;;4.13;3.17;;;20.80;73.40;;;;;;5100516;27;20171;-85
2023/07/25 05:56:10;;;;;;;3.75;3.17;;;20.90;73.90;;;;;;5117849;27;20590;-83
2023/07/25 05:58:36;;;;;;;3.75;3.13;;;20.80;73.80;;;;;;5117343;27;20272;-86
2023/07/25 06:01:02;;;;;;;3.50;3.20;;;20.80;74.00;;;;;;5135844;27;20636;-84
2023/07/25 06:03:28;;;;;;;3.78;3.33;;;20.80;74.30;;;;;;5117396;27;20144;-87
2023/07/25 06:05:53;;;;;;;3.72;2.92;;;20.80;74.40;;;;;;5117334;27;20159;-85
2023/07/25 06:08:19;;;;;;;3.63;3.33;;;20.80;74.80;;;;;;5100556;27;20167;-85
2023/07/25 06:10:46;;;;;;;4.05;3.47;;;20.70;75.00;;;;;;5135575;27;20183;-85
2023/07/25 06:13:12;;;;;;;3.80;3.40;;;20.70;74.90;;;;;;5100478;27;20163;-87
2023/07/25 06:15:37;;;;;;;3.60;3.22;;;20.70;75.20;;;;;;5100201;27;20593;-83
2023/07/25 06:18:04;;;;;;;3.70;3.30;;;20.70;75.50;;;;;;5117203;27;20682;-83
2023/07/25 06:20:32;;;;;;;3.85;3.38;;;20.70;75.70;;;;;;5117174;27;20190;-83
2023/07/25 06:22:59;;;;;;;3.97;3.53;;;20.70;75.70;;;;;;5117314;27;20183;-83
2023/07/25 06:25:25;;;;;;;3.55;3.17;;;20.80;76.10;;;;;;5100321;27;20171;-84
2023/07/25 06:27:52;;;;;;;5.00;3.60;;;20.70;76.10;;;;;;5117133;27;20183;-86
2023/07/25 06:30:18;;;;;;;4.20;3.80;;;20.70;76.00;;;;;;5116948;27;20155;-85
2023/07/25 06:32:43;;;;;;;4.15;3.72;;;20.70;76.30;;;;;;5099929;27;20163;-82
2023/07/25 06:35:09;;;;;;;4.22;3.45;;;20.70;76.40;;;;;;5099787;27;20613;-86
2023/07/25 06:37:36;;;;;;;4.45;3.40;;;20.70;76.80;;;;;;5100422;27;20603;-87
2023/07/25 06:40:02;;;;;;;4.15;3.53;;;20.70;76.50;;;;;;5099577;27;20645;-86
2023/07/25 06:42:28;;;;;;;4.10;3.30;;;20.80;76.70;;;;;;5116339;27;20159;-84
2023/07/25 06:44:55;;;;;;;4.15;3.30;;;20.70;76.70;;;;;;5099488;27;20170;-86
2023/07/25 06:47:21;;;;;;;4.63;3.83;;;20.70;76.90;;;;;;5138996;27;20171;-85
2023/07/25 06:49:47;;;;;;;4.38;3.97;;;20.80;76.90;;;;;;5155565;27;20151;-85
2023/07/25 06:52:12;;;;;;;3.83;3.42;;;20.70;76.90;;;;;;5155380;27;20676;-86
2023/07/25 06:54:39;;;;;;;4.78;4.18;;;20.70;77.10;;;;;;5136889;27;20169;-83
2023/07/25 06:57:05;;;;;;;5.00;3.88;;;20.70;77.10;;;;;;5120077;27;20637;-84
2023/07/25 06:59:31;;;;;;;4.57;3.80;;;20.70;77.30;;;;;;5137388;27;20720;-82
2023/07/25 07:01:57;;;;;;;4.60;3.67;;;20.80;77.30;;;;;;5155212;27;20150;-83
2023/07/25 07:04:23;;;;;;;4.90;3.70;;;20.80;77.30;;;;;;5119652;27;20576;-85
2023/07/25 07:06:48;;;;;;;4.30;3.55;;;20.70;77.40;;;;;;5119632;27;20182;-84
2023/07/25 07:09:14;;;;;;;4.85;3.72;;;20.80;77.40;;;;;;5119635;27;20577;-85
2023/07/25 07:11:40;;;;;;;4.80;3.85;;;20.80;77.40;;;;;;5119372;27;20154;-83
2023/07/25 07:14:07;;;;;;;4.38;3.80;;;20.80;77.50;;;;;;5136864;27;20518;-87
2023/07/25 07:16:33;;;;;;;4.15;3.53;;;20.80;77.70;;;;;;5119425;27;20211;-83
2023/07/25 07:18:59;;;;;;;4.15;3.70;;;20.80;77.50;;;;;;5136918;27;20245;-87
2023/07/25 07:21:24;;;;;;;4.72;3.67;;;20.90;77.60;;;;;;5136578;27;20221;-84
2023/07/25 07:23:51;;;;;;;4.47;3.90;;;20.90;77.50;;;;;;5155095;27;20158;-87
2023/07/25 07:26:17;;;;;;;4.07;3.67;;;20.80;77.60;;;;;;5155215;27;20151;-85
2023/07/25 07:28:43;;;;;;;4.13;3.60;;;20.90;77.60;;;;;;5136557;27;20532;-85
2023/07/25 07:31:09;;;;;;;4.68;4.13;;;20.90;78.00;;;;;;5136504;27;20143;-85
2023/07/25 07:33:35;;;;;;;4.65;3.95;;;20.90;78.00;;;;;;5119367;27;20609;-84
2023/07/25 07:36:01;;;;;;;5.13;4.45;;;20.90;78.00;;;;;;5136567;27;20201;-84
2023/07/25 07:38:27;;;;;;;4.22;3.83;;;20.90;78.20;;;;;;5119189;27;20609;-84
2023/07/25 07:40:53;;;;;;;4.50;3.75;;;20.90;78.10;;;;;;5136486;27;20627;-85
2023/07/25 07:43:19;;;;;;;4.55;4.03;;;20.90;78.10;;;;;;5136662;27;20624;-84
2023/07/25 07:45:45;;;;;;;4.35;3.92;;;20.80;78.30;;;;;;5119192;27;20227;-85
2023/07/25 07:48:11;;;;;;;4.50;4.03;;;20.80;78.40;;;;;;5119156;27;20170;-84
2023/07/25 07:50:38;;;;;;;4.65;3.95;;;20.80;78.40;;;;;;5119772;27;20254;-83
2023/07/25 07:53:03;;;;;;;4.72;4.25;;;20.90;78.50;;;;;;5115808;28;20314;-85
2023/07/25 07:55:29;;;;;;;4.43;3.90;;;20.80;78.40;;;;;;5133144;28;20306;-84
2023/07/25 07:57:55;;;;;;;4.68;4.18;;;20.80;78.50;;;;;;5133412;28;20679;-84
2023/07/25 08:00:23;;;;;;;4.65;3.70;;;20.80;78.70;;;;;;5134009;28;20183;-88
2023/07/25 08:02:50;;;;;;;4.20;3.80;;;20.90;78.70;;;;;;5115941;28;20167;-84
2023/07/25 08:05:16;;;;;;;4.32;3.90;;;20.90;78.70;;;;;;5134246;27;20152;-84
2023/07/25 08:07:42;;;;;;;4.57;4.07;;;20.80;78.90;;;;;;5119331;27;20550;-83
2023/07/25 08:10:08;;;;;;;4.97;4.10;;;20.80;78.60;;;;;;5119781;27;20171;-83
2023/07/25 08:12:34;;;;;;;4.75;4.25;;;20.90;78.70;;;;;;5120251;27;20167;-85
2023/07/25 08:15:00;;;;;;;4.22;3.83;;;20.90;78.70;;;;;;5119684;27;20163;-86
2023/07/25 08:17:26;;;;;;;4.53;4.03;;;20.90;78.90;;;;;;5119530;27;20618;-84
2023/07/25 08:19:52;;;;;;;5.25;4.10;;;20.90;78.80;;;;;;5119468;27;20239;-85
2023/07/25 08:22:18;;;;;;;4.75;4.00;;;20.90;78.90;;;;;;5137180;27;20151;-83
2023/07/25 08:24:44;;;;;;;5.03;4.35;;;20.90;78.90;;;;;;5119867;27;20159;-86
2023/07/25 08:27:10;;;;;;;4.53;3.90;;;20.90;79.00;;;;;;5136464;27;20163;-83
2023/07/25 08:29:46;;;;;;;4.60;3.88;;;21.00;79.20;;;;;;5119643;27;20610;-85
2023/07/25 08:32:11;;;;;;;5.05;4.40;;;20.90;78.70;;;;;;5136423;27;20216;-86
2023/07/25 08:34:38;;;;;;;4.82;4.32;;;21.00;79.00;;;;;;5136777;27;20234;-85
2023/07/25 08:37:04;;;;;;;4.20;3.75;;;21.00;79.10;;;;;;5136251;27;20152;-83
2023/07/25 08:39:30;;;;;;;4.97;4.47;;;21.00;79.30;;;;;;5119203;27;20233;-84
2023/07/25 08:41:56;;;;;;;5.45;4.40;;;21.00;79.40;;;;;;5136457;27;20628;-86
2023/07/25 08:44:22;;;;;;;5.40;4.45;;;21.00;79.40;;;;;;5137421;27;20226;-84
2023/07/25 08:46:50;;;;;;;6.10;4.10;;;21.00;79.30;;;;;;5136062;27;20596;-83
2023/07/25 08:49:16;;;;;;;5.03;4.22;;;21.00;79.50;;;;;;5119532;27;20159;-86
2023/07/25 08:51:43;;;;;;;4.68;4.00;;;21.00;79.40;;;;;;5119155;27;20625;-83
2023/07/25 08:54:31;;;;;;;4.93;4.40;;;20.90;79.80;;;;;;5135915;27;20164;-86
2023/07/25 08:56:57;;;;;;;4.50;4.10;;;20.90;79.70;;;;;;5135818;27;20216;-86
2023/07/25 08:59:23;;;;;;;4.88;4.10;;;20.90;80.10;;;;;;5101761;27;20692;-85
2023/07/25 09:01:50;;;;;;;5.10;3.90;;;20.90;80.00;;;;;;5118647;27;20250;-86
2023/07/25 09:04:16;;;;;;;5.28;4.35;;;20.90;80.00;;;;;;5119042;27;20169;-82
2023/07/25 09:06:42;;;;;;;5.05;3.97;;;21.00;80.30;;;;;;5136598;27;20656;-85
2023/07/25 09:09:08;;;;;;;5.20;4.25;;;20.90;80.20;;;;;;5135683;27;20155;-84
2023/07/25 09:11:34;;;;;;;4.82;4.28;;;20.90;80.50;;;;;;5136830;27;20265;-86
2023/07/25 09:14:01;;;;;;;5.00;4.07;;;20.90;80.50;;;;;;5137043;27;20625;-85
2023/07/25 09:16:26;;;;;;;5.50;4.30;;;20.90;80.50;;;;;;5118318;27;20160;-86
2023/07/25 09:18:52;;;;;;;4.63;4.18;;;21.00;80.70;;;;;;5134153;27;20191;-83
2023/07/25 09:21:18;;;;;;;4.82;4.30;;;20.90;80.90;;;;;;5136992;27;20243;-82
2023/07/25 09:23:54;;;;;;;4.85;4.32;;;21.00;81.00;;;;;;5136139;27;20624;-83
2023/07/25 09:26:22;;;;;;;4.50;3.97;;;21.00;81.10;;;;;;5118830;27;20166;-87
2023/07/25 09:28:49;;;;;;;4.25;3.83;;;21.00;81.10;;;;;;5135638;27;20155;-84
2023/07/25 09:31:15;;;;;;;4.85;4.10;;;21.00;81.20;;;;;;5136185;27;20147;-86
2023/07/25 09:33:46;;;;;;;5.82;4.40;;;20.90;81.30;;;;;;5118628;27;20214;-84
2023/07/25 09:36:12;;;;;;;4.80;3.97;;;20.90;81.40;;;;;;5118369;27;20179;-85
2023/07/25 09:38:49;;;;;;;4.93;4.00;;;20.90;81.50;;;;;;5118564;27;20527;-86
2023/07/25 09:41:16;;;;;;;5.15;4.50;;;21.00;81.70;;;;;;5135677;27;20173;-85
2023/07/25 09:43:42;;;;;;;5.32;4.20;;;20.90;82.60;;;;;;5114750;28;20168;-85
2023/07/25 09:46:08;;;;;;;4.90;4.15;;;21.00;81.60;;;;;;5100953;27;20195;-83
2023/07/25 09:48:33;;;;;;;4.88;4.10;;;21.00;81.60;;;;;;5093200;28;20220;-86
2023/07/25 09:50:59;;;;;;;4.57;4.03;;;21.00;81.60;;;;;;5114193;28;20387;-83
2023/07/25 09:53:24;;;;;;;4.80;4.30;;;21.00;81.70;;;;;;5124575;27;20218;-84
2023/07/25 09:55:50;;;;;;;4.88;4.30;;;21.00;81.70;;;;;;5117822;27;20152;-82
2023/07/25 09:58:16;;;;;;;4.70;3.85;;;21.00;81.70;;;;;;5114246;28;20171;-87
2023/07/25 10:00:43;;;;;;;5.03;4.15;;;21.00;81.80;;;;;;5114143;28;20236;-85
2023/07/25 10:03:09;;;;;;;5.00;3.78;;;21.00;82.40;;;;;;5097017;28;20164;-83
2023/07/25 10:05:35;;;;;;;6.03;4.20;;;21.00;81.40;;;;;;5114162;28;20151;-87
2023/07/25 10:08:01;;;;;;;4.70;4.10;;;21.00;81.10;;;;;;5114009;28;20172;-83
2023/07/25 10:10:26;;;;;;;4.25;3.72;;;21.00;81.10;;;;;;5114129;28;20158;-85
2023/07/25 10:12:53;;;;;;;3.97;3.58;;;21.00;80.70;;;;;;5108585;27;20560;-83
2023/07/25 10:15:19;;;;;;;4.63;3.72;;;21.00;80.50;;;;;;5125096;27;20174;-84
2023/07/25 10:17:46;;;;;;;6.00;4.05;;;21.10;80.60;;;;;;5129800;27;20255;-84
2023/07/25 10:20:21;;;;;;;5.28;4.20;;;21.00;80.70;;;;;;5119206;27;20206;-87
2023/07/25 10:22:47;;;;;;;4.47;3.75;;;21.00;80.70;;;;;;5124676;27;20265;-85
2023/07/25 10:25:27;;;;;;;4.32;3.85;;;21.00;80.70;;;;;;5135403;27;20227;-83
2023/07/25 10:27:58;;;;;;;4.50;3.97;;;21.00;80.60;;;;;;5131236;27;21917;-84
2023/07/25 10:30:25;;;;;;;4.07;3.67;;;21.10;80.60;;;;;;5113694;28;20222;-88
2023/07/25 10:32:52;;;;;;;4.22;3.75;;;21.00;80.40;;;;;;5113467;28;20632;-84
2023/07/25 10:35:42;;;;;;;4.63;4.03;;;21.00;80.40;;;;;;5125996;27;20167;-84
2023/07/25 10:38:09;;;;;;;5.30;3.90;;;21.10;80.30;;;;;;5135140;27;20158;-83
2023/07/25 10:40:56;;;;;;;4.45;4.00;;;21.10;80.40;;;;;;5079560;28;20203;-86
2023/07/25 10:43:27;;;;;;;4.45;4.00;;;21.10;80.40;;;;;;5104821;28;20175;-87
2023/07/25 10:45:55;;;;;;;4.70;4.03;;;21.10;80.50;;;;;;5099618;28;20172;-86
2023/07/25 10:48:31;;;;;;;4.32;3.78;;;21.20;80.40;;;;;;5114627;27;20630;-85
2023/07/25 10:50:57;;;;;;;4.30;3.78;;;21.10;80.50;;;;;;5096116;28;20286;-87
2023/07/25 10:53:24;;;;;;;3.90;3.50;;;21.10;80.60;;;;;;5110415;28;20357;-83
2023/07/25 10:56:10;;;;;;;4.40;3.92;;;21.10;81.00;;;;;;5115819;27;20176;-84
2023/07/25 10:58:52;;;;;;;4.30;3.90;;;21.10;81.10;;;;;;5120064;27;20219;-84
2023/07/25 11:01:34;;;;;;;4.80;4.28;;;21.20;81.00;;;;;;5117484;27;20190;-84
2023/07/25 11:04:20;;;;;;;5.25;4.50;;;21.20;80.90;;;;;;5117060;27;20638;-83
2023/07/25 11:06:47;;;;;;;5.03;4.28;;;21.20;81.10;;;;;;5120678;27;20213;-85
2023/07/25 11:09:13;;;;;;;4.93;4.07;;;21.20;80.90;;;;;;5099154;27;20187;-84
2023/07/25 11:11:46;;;;;;;4.75;4.28;;;21.20;80.60;;;;;;5133111;27;20177;-88
2023/07/25 11:14:14;;;;;;;4.20;3.80;;;21.20;80.70;;;;;;5116647;27;20238;-83
2023/07/25 11:16:40;;;;;;;4.55;3.90;;;21.20;80.60;;;;;;5116247;27;20170;-87
2023/07/25 11:19:06;;;;;;;5.07;4.03;;;21.20;80.50;;;;;;5133370;27;20672;-86
2023/07/25 11:21:38;;;;;;;4.93;4.43;;;21.20;80.50;;;;;;5133536;27;20155;-86
2023/07/25 11:24:05;;;;;;;4.30;3.85;;;21.20;80.70;;;;;;5133107;27;20155;-84
2023/07/25 11:26:30;;;;;;;4.97;3.90;;;21.20;80.50;;;;;;5134691;27;20158;-87
2023/07/25 11:29:01;;;;;;;4.30;3.90;;;21.20;80.50;;;;;;5134913;27;20168;-86
2023/07/25 11:31:26;;;;;;;4.40;3.78;;;21.20;80.60;;;;;;5116922;27;20148;-86
2023/07/25 11:33:52;;;;;;;4.68;4.05;;;21.20;80.60;;;;;;5116075;28;20524;-83
2023/07/25 11:36:20;;;;;;;4.38;3.70;;;21.20;80.70;;;;;;5099062;28;20238;-86
2023/07/25 11:38:45;;;;;;;4.35;3.78;;;21.10;80.70;;;;;;5134250;28;20148;-89
2023/07/25 11:41:11;;;;;;;4.38;3.95;;;21.10;80.90;;;;;;5100619;27;20519;-86
2023/07/25 11:43:37;;;;;;;4.35;3.90;;;21.10;81.00;;;;;;5137383;27;20519;-85
2023/07/25 11:46:02;;;;;;;4.00;3.50;;;21.10;81.10;;;;;;5137339;27;20155;-87
2023/07/25 11:48:28;;;;;;;3.95;3.53;;;21.00;81.30;;;;;;5138401;27;20558;-85
2023/07/25 11:50:54;;;;;;;4.03;3.55;;;21.00;81.50;;;;;;5120047;27;21699;-83
2023/07/25 11:53:20;;;;;;;4.30;3.67;;;21.00;81.70;;;;;;5156959;27;20222;-84
2023/07/25 11:55:48;;;;;;;3.45;3.15;;;20.90;81.80;;;;;;5140465;27;20617;-85
2023/07/25 11:58:21;;;;;;;4.22;3.55;;;20.90;82.80;;;;;;5140523;27;20189;-84
2023/07/25 12:00:51;;;;;;;3.90;3.50;;;20.90;82.10;;;;;;5140776;27;20286;-86
2023/07/25 12:03:20;;;;;;;4.05;3.28;;;20.90;82.30;;;;;;5124145;27;20147;-84
2023/07/25 12:05:56;;;;;;;4.05;3.65;;;20.80;82.30;;;;;;5159285;27;20153;-83
2023/07/25 12:08:39;;;;;;;3.58;3.17;;;20.80;82.60;;;;;;5140918;27;20173;-86
2023/07/25 12:11:07;;;;;;;3.78;3.25;;;20.80;82.80;;;;;;5124934;27;20595;-83
2023/07/25 12:13:41;;;;;;;3.88;3.22;;;20.80;83.00;;;;;;5158919;27;20608;-84
2023/07/25 12:16:07;;;;;;;3.75;3.15;;;20.80;83.30;;;;;;5124416;27;20143;-87
2023/07/25 12:18:34;;;;;;;3.75;3.17;;;20.80;83.40;;;;;;5158805;27;20161;-85
2023/07/25 12:21:01;;;;;;;4.18;3.40;;;20.70;83.40;;;;;;5106187;27;20542;-84
2023/07/25 12:23:29;;;;;;;3.50;3.03;;;20.80;83.60;;;;;;5140262;27;20297;-85
2023/07/25 12:25:55;;;;;;;3.90;3.13;;;20.80;83.60;;;;;;5122396;27;20253;-85
2023/07/25 12:28:22;;;;;;;4.28;3.35;;;20.80;83.80;;;;;;5140375;27;20158;-85
2023/07/25 12:30:48;;;;;;;3.22;2.80;;;20.70;83.90;;;;;;5140061;27;20621;-85
2023/07/25 12:33:13;;;;;;;3.35;2.88;;;20.80;84.10;;;;;;5139749;27;20158;-84
2023/07/25 12:35:39;;;;;;;3.25;2.88;;;20.70;84.20;;;;;;5157850;27;20200;-84
2023/07/25 12:38:05;;;;;;;3.40;2.92;;;20.70;84.40;;;;;;5139723;27;20512;-86
2023/07/25 12:40:30;;;;;;;3.60;3.03;;;20.70;84.50;;;;;;5158105;27;20694;-84
2023/07/25 12:42:56;;;;;;;3.22;2.83;;;20.70;84.50;;;;;;5122418;27;20155;-84
2023/07/25 12:45:22;;;;;;;3.30;2.63;;;20.60;84.70;;;;;;5122613;27;20608;-84